sensor_id;sensor_type;location;lat;lon;timestamp;P1;durP1;ratioP1;P2;durP2;ratioP2
7583;SDS011;3833;41.764;26.204;2023-05-07T00:00:53;4.83;;;3.80;;
7583;SDS011;3833;41.764;26.204;2023-05-07T00:03:20;4.97;;;3.87;;
7583;SDS011;3833;41.764;26.204;2023-05-07T00:05:47;3.90;;;3.37;;
7583;SDS011;3833;41.764;26.204;2023-05-07T00:08:15;9.73;;;4.10;;
7583;SDS011;3833;41.764;26.204;2023-05-07T00:10:42;6.40;;;4.10;;
7583;SDS011;3833;41.764;26.204;2023-05-07T00:13:09;6.57;;;3.70;;
7583;SDS011;3833;41.764;26.204;2023-05-07T00:15:36;4.97;;;3.57;;
7583;SDS011;3833;41.764;26.204;2023-05-07T00:18:03;6.93;;;4.07;;
7583;SDS011;3833;41.764;26.204;2023-05-07T00:20:30;5.37;;;3.57;;
7583;SDS011;3833;41.764;26.204;2023-05-07T00:22:57;4.10;;;3.63;;
7583;SDS011;3833;41.764;26.204;2023-05-07T00:25:25;4.80;;;3.77;;
7583;SDS011;3833;41.764;26.204;2023-05-07T00:27:52;5.17;;;3.63;;
7583;SDS011;3833;41.764;26.204;2023-05-07T00:30:19;5.50;;;3.93;;
7583;SDS011;3833;41.764;26.204;2023-05-07T00:32:46;4.50;;;3.50;;
7583;SDS011;3833;41.764;26.204;2023-05-07T00:35:14;5.47;;;4.23;;
7583;SDS011;3833;41.764;26.204;2023-05-07T00:37:40;6.93;;;4.07;;
7583;SDS011;3833;41.764;26.204;2023-05-07T00:40:08;7.43;;;4.43;;
7583;SDS011;3833;41.764;26.204;2023-05-07T00:42:37;6.57;;;4.17;;
7583;SDS011;3833;41.764;26.204;2023-05-07T00:45:05;5.20;;;4.23;;
7583;SDS011;3833;41.764;26.204;2023-05-07T00:47:32;4.73;;;3.97;;
7583;SDS011;3833;41.764;26.204;2023-05-07T00:49:59;5.33;;;4.10;;
7583;SDS011;3833;41.764;26.204;2023-05-07T00:52:26;6.10;;;3.77;;
7583;SDS011;3833;41.764;26.204;2023-05-07T00:54:54;5.10;;;3.93;;
7583;SDS011;3833;41.764;26.204;2023-05-07T00:57:21;5.03;;;4.03;;
7583;SDS011;3833;41.764;26.204;2023-05-07T00:59:50;6.97;;;4.13;;
7583;SDS011;3833;41.764;26.204;2023-05-07T01:02:17;5.17;;;4.10;;
7583;SDS011;3833;41.764;26.204;2023-05-07T01:04:44;5.80;;;4.10;;
7583;SDS011;3833;41.764;26.204;2023-05-07T01:07:10;5.93;;;4.30;;
7583;SDS011;3833;41.764;26.204;2023-05-07T01:09:37;5.60;;;4.27;;
7583;SDS011;3833;41.764;26.204;2023-05-07T01:12:08;6.93;;;4.47;;
7583;SDS011;3833;41.764;26.204;2023-05-07T01:14:35;5.50;;;4.40;;
7583;SDS011;3833;41.764;26.204;2023-05-07T01:17:03;5.73;;;4.40;;
7583;SDS011;3833;41.764;26.204;2023-05-07T01:19:30;4.37;;;3.97;;
7583;SDS011;3833;41.764;26.204;2023-05-07T01:22:00;5.27;;;4.37;;
7583;SDS011;3833;41.764;26.204;2023-05-07T01:24:31;4.53;;;3.90;;
7583;SDS011;3833;41.764;26.204;2023-05-07T01:26:58;6.17;;;4.30;;
7583;SDS011;3833;41.764;26.204;2023-05-07T01:29:26;5.37;;;3.80;;
7583;SDS011;3833;41.764;26.204;2023-05-07T01:31:53;4.90;;;4.00;;
7583;SDS011;3833;41.764;26.204;2023-05-07T01:34:21;5.00;;;4.13;;
7583;SDS011;3833;41.764;26.204;2023-05-07T01:36:48;6.93;;;4.70;;
7583;SDS011;3833;41.764;26.204;2023-05-07T01:39:15;8.23;;;4.53;;
7583;SDS011;3833;41.764;26.204;2023-05-07T01:41:44;5.90;;;5.13;;
7583;SDS011;3833;41.764;26.204;2023-05-07T01:44:11;5.50;;;4.37;;
7583;SDS011;3833;41.764;26.204;2023-05-07T01:46:39;5.00;;;4.57;;
7583;SDS011;3833;41.764;26.204;2023-05-07T01:49:06;6.60;;;4.60;;
7583;SDS011;3833;41.764;26.204;2023-05-07T01:51:32;4.90;;;4.20;;
7583;SDS011;3833;41.764;26.204;2023-05-07T01:54:00;5.23;;;4.57;;
7583;SDS011;3833;41.764;26.204;2023-05-07T01:56:26;5.20;;;4.67;;
7583;SDS011;3833;41.764;26.204;2023-05-07T01:58:55;7.80;;;4.63;;
7583;SDS011;3833;41.764;26.204;2023-05-07T02:01:21;5.97;;;4.53;;
7583;SDS011;3833;41.764;26.204;2023-05-07T02:03:48;5.90;;;4.60;;
7583;SDS011;3833;41.764;26.204;2023-05-07T02:06:15;6.23;;;4.50;;
7583;SDS011;3833;41.764;26.204;2023-05-07T02:08:42;6.47;;;4.67;;
7583;SDS011;3833;41.764;26.204;2023-05-07T02:11:09;8.17;;;4.43;;
7583;SDS011;3833;41.764;26.204;2023-05-07T02:13:37;7.63;;;3.83;;
7583;SDS011;3833;41.764;26.204;2023-05-07T02:16:06;4.40;;;4.00;;
7583;SDS011;3833;41.764;26.204;2023-05-07T02:18:33;5.33;;;4.53;;
7583;SDS011;3833;41.764;26.204;2023-05-07T02:21:00;5.97;;;4.80;;
7583;SDS011;3833;41.764;26.204;2023-05-07T02:23:27;5.57;;;4.73;;
7583;SDS011;3833;41.764;26.204;2023-05-07T02:25:54;6.80;;;4.70;;
7583;SDS011;3833;41.764;26.204;2023-05-07T02:28:21;5.43;;;4.90;;
7583;SDS011;3833;41.764;26.204;2023-05-07T02:30:48;5.77;;;4.73;;
7583;SDS011;3833;41.764;26.204;2023-05-07T02:33:17;11.07;;;4.90;;
7583;SDS011;3833;41.764;26.204;2023-05-07T02:35:43;5.00;;;4.17;;
7583;SDS011;3833;41.764;26.204;2023-05-07T02:38:10;6.50;;;4.67;;
7583;SDS011;3833;41.764;26.204;2023-05-07T02:40:37;4.67;;;4.27;;
7583;SDS011;3833;41.764;26.204;2023-05-07T02:43:05;4.87;;;4.47;;
7583;SDS011;3833;41.764;26.204;2023-05-07T02:45:31;5.03;;;4.47;;
7583;SDS011;3833;41.764;26.204;2023-05-07T02:47:58;6.87;;;5.03;;
7583;SDS011;3833;41.764;26.204;2023-05-07T02:50:27;4.93;;;4.43;;
7583;SDS011;3833;41.764;26.204;2023-05-07T02:52:53;5.63;;;5.10;;
7583;SDS011;3833;41.764;26.204;2023-05-07T02:55:20;7.37;;;5.37;;
7583;SDS011;3833;41.764;26.204;2023-05-07T02:57:47;4.70;;;4.20;;
7583;SDS011;3833;41.764;26.204;2023-05-07T03:00:15;5.57;;;4.87;;
7583;SDS011;3833;41.764;26.204;2023-05-07T03:02:43;6.57;;;5.30;;
7583;SDS011;3833;41.764;26.204;2023-05-07T03:05:09;7.30;;;4.97;;
7583;SDS011;3833;41.764;26.204;2023-05-07T03:07:38;7.60;;;5.03;;
7583;SDS011;3833;41.764;26.204;2023-05-07T03:10:06;6.13;;;5.43;;
7583;SDS011;3833;41.764;26.204;2023-05-07T03:12:33;9.23;;;5.20;;
7583;SDS011;3833;41.764;26.204;2023-05-07T03:15:00;5.83;;;5.27;;
7583;SDS011;3833;41.764;26.204;2023-05-07T03:17:27;7.27;;;5.90;;
7583;SDS011;3833;41.764;26.204;2023-05-07T03:19:54;6.50;;;5.70;;
7583;SDS011;3833;41.764;26.204;2023-05-07T03:22:21;6.63;;;5.90;;
7583;SDS011;3833;41.764;26.204;2023-05-07T03:24:49;6.20;;;5.57;;
7583;SDS011;3833;41.764;26.204;2023-05-07T03:27:17;8.90;;;5.63;;
7583;SDS011;3833;41.764;26.204;2023-05-07T03:29:44;7.70;;;5.63;;
7583;SDS011;3833;41.764;26.204;2023-05-07T03:32:11;7.47;;;5.90;;
7583;SDS011;3833;41.764;26.204;2023-05-07T03:34:38;9.33;;;5.70;;
7583;SDS011;3833;41.764;26.204;2023-05-07T03:37:05;7.60;;;5.97;;
7583;SDS011;3833;41.764;26.204;2023-05-07T03:39:32;8.17;;;6.10;;
7583;SDS011;3833;41.764;26.204;2023-05-07T03:42:00;9.60;;;6.07;;
7583;SDS011;3833;41.764;26.204;2023-05-07T03:44:27;8.67;;;6.23;;
7583;SDS011;3833;41.764;26.204;2023-05-07T03:46:54;9.70;;;6.73;;
7583;SDS011;3833;41.764;26.204;2023-05-07T03:49:22;7.83;;;6.07;;
7583;SDS011;3833;41.764;26.204;2023-05-07T03:51:49;6.70;;;6.00;;
7583;SDS011;3833;41.764;26.204;2023-05-07T03:54:16;9.17;;;6.67;;
7583;SDS011;3833;41.764;26.204;2023-05-07T03:56:43;7.97;;;6.67;;
7583;SDS011;3833;41.764;26.204;2023-05-07T03:59:11;7.27;;;6.23;;
7583;SDS011;3833;41.764;26.204;2023-05-07T04:01:38;9.67;;;6.57;;
7583;SDS011;3833;41.764;26.204;2023-05-07T04:04:05;8.00;;;6.50;;
7583;SDS011;3833;41.764;26.204;2023-05-07T04:06:32;7.27;;;6.03;;
7583;SDS011;3833;41.764;26.204;2023-05-07T04:08:59;9.40;;;7.20;;
7583;SDS011;3833;41.764;26.204;2023-05-07T04:11:26;9.00;;;6.40;;
7583;SDS011;3833;41.764;26.204;2023-05-07T04:13:53;7.23;;;6.47;;
7583;SDS011;3833;41.764;26.204;2023-05-07T04:16:22;7.80;;;6.10;;
7583;SDS011;3833;41.764;26.204;2023-05-07T04:18:48;9.23;;;5.87;;
7583;SDS011;3833;41.764;26.204;2023-05-07T04:21:16;8.20;;;6.07;;
7583;SDS011;3833;41.764;26.204;2023-05-07T04:23:43;6.53;;;5.90;;
7583;SDS011;3833;41.764;26.204;2023-05-07T04:26:10;6.63;;;5.60;;
7583;SDS011;3833;41.764;26.204;2023-05-07T04:28:37;8.33;;;6.23;;
7583;SDS011;3833;41.764;26.204;2023-05-07T04:31:05;8.80;;;6.60;;
7583;SDS011;3833;41.764;26.204;2023-05-07T04:33:33;6.53;;;5.83;;
7583;SDS011;3833;41.764;26.204;2023-05-07T04:36:01;7.73;;;6.00;;
7583;SDS011;3833;41.764;26.204;2023-05-07T04:38:29;7.47;;;6.07;;
7583;SDS011;3833;41.764;26.204;2023-05-07T04:40:56;7.97;;;6.07;;
7583;SDS011;3833;41.764;26.204;2023-05-07T04:43:23;8.67;;;6.30;;
7583;SDS011;3833;41.764;26.204;2023-05-07T04:45:50;7.47;;;6.33;;
7583;SDS011;3833;41.764;26.204;2023-05-07T04:48:17;7.60;;;6.17;;
7583;SDS011;3833;41.764;26.204;2023-05-07T04:50:48;8.87;;;6.33;;
7583;SDS011;3833;41.764;26.204;2023-05-07T04:53:15;13.17;;;6.00;;
7583;SDS011;3833;41.764;26.204;2023-05-07T04:55:42;8.73;;;7.23;;
7583;SDS011;3833;41.764;26.204;2023-05-07T04:58:10;8.40;;;7.33;;
7583;SDS011;3833;41.764;26.204;2023-05-07T05:00:37;7.80;;;7.10;;
7583;SDS011;3833;41.764;26.204;2023-05-07T05:03:05;9.60;;;6.30;;
7583;SDS011;3833;41.764;26.204;2023-05-07T05:05:32;7.17;;;6.47;;
7583;SDS011;3833;41.764;26.204;2023-05-07T05:08:01;8.80;;;5.97;;
7583;SDS011;3833;41.764;26.204;2023-05-07T05:10:27;7.53;;;6.10;;
7583;SDS011;3833;41.764;26.204;2023-05-07T05:12:54;10.87;;;6.33;;
7583;SDS011;3833;41.764;26.204;2023-05-07T05:15:22;12.43;;;6.80;;
7583;SDS011;3833;41.764;26.204;2023-05-07T05:17:49;9.43;;;6.47;;
7583;SDS011;3833;41.764;26.204;2023-05-07T05:20:15;9.50;;;6.20;;
7583;SDS011;3833;41.764;26.204;2023-05-07T05:22:42;10.30;;;6.30;;
7583;SDS011;3833;41.764;26.204;2023-05-07T05:25:11;7.63;;;6.10;;
7583;SDS011;3833;41.764;26.204;2023-05-07T05:27:38;10.97;;;10.07;;
7583;SDS011;3833;41.764;26.204;2023-05-07T05:30:05;14.87;;;13.70;;
7583;SDS011;3833;41.764;26.204;2023-05-07T05:32:33;13.13;;;12.07;;
7583;SDS011;3833;41.764;26.204;2023-05-07T05:35:00;9.53;;;8.33;;
7583;SDS011;3833;41.764;26.204;2023-05-07T05:37:27;9.17;;;5.30;;
7583;SDS011;3833;41.764;26.204;2023-05-07T05:39:55;7.10;;;5.80;;
7583;SDS011;3833;41.764;26.204;2023-05-07T05:42:26;6.13;;;5.50;;
7583;SDS011;3833;41.764;26.204;2023-05-07T05:44:55;9.63;;;5.43;;
7583;SDS011;3833;41.764;26.204;2023-05-07T05:47:22;6.53;;;5.37;;
7583;SDS011;3833;41.764;26.204;2023-05-07T05:49:50;9.37;;;5.30;;
7583;SDS011;3833;41.764;26.204;2023-05-07T05:52:20;8.43;;;5.63;;
7583;SDS011;3833;41.764;26.204;2023-05-07T05:54:48;7.80;;;4.60;;
7583;SDS011;3833;41.764;26.204;2023-05-07T05:57:15;7.30;;;5.27;;
7583;SDS011;3833;41.764;26.204;2023-05-07T05:59:44;5.50;;;4.97;;
7583;SDS011;3833;41.764;26.204;2023-05-07T06:02:12;8.87;;;5.10;;
7583;SDS011;3833;41.764;26.204;2023-05-07T06:04:39;11.77;;;10.90;;
7583;SDS011;3833;41.764;26.204;2023-05-07T06:07:07;14.67;;;13.60;;
7583;SDS011;3833;41.764;26.204;2023-05-07T06:09:34;13.40;;;12.57;;
7583;SDS011;3833;41.764;26.204;2023-05-07T06:12:01;15.50;;;14.50;;
7583;SDS011;3833;41.764;26.204;2023-05-07T06:14:28;5.80;;;3.90;;
7583;SDS011;3833;41.764;26.204;2023-05-07T06:16:56;6.17;;;3.73;;
7583;SDS011;3833;41.764;26.204;2023-05-07T06:19:23;5.53;;;3.43;;
7583;SDS011;3833;41.764;26.204;2023-05-07T06:21:51;8.63;;;3.53;;
7583;SDS011;3833;41.764;26.204;2023-05-07T06:24:18;5.10;;;3.00;;
7583;SDS011;3833;41.764;26.204;2023-05-07T06:26:45;4.43;;;3.50;;
7583;SDS011;3833;41.764;26.204;2023-05-07T06:29:12;4.27;;;3.20;;
7583;SDS011;3833;41.764;26.204;2023-05-07T06:31:39;4.93;;;4.10;;
7583;SDS011;3833;41.764;26.204;2023-05-07T06:34:07;7.93;;;5.47;;
7583;SDS011;3833;41.764;26.204;2023-05-07T06:36:34;3.53;;;2.80;;
7583;SDS011;3833;41.764;26.204;2023-05-07T06:39:01;3.07;;;2.80;;
7583;SDS011;3833;41.764;26.204;2023-05-07T06:41:28;3.23;;;2.90;;
7583;SDS011;3833;41.764;26.204;2023-05-07T06:43:54;12.23;;;11.73;;
7583;SDS011;3833;41.764;26.204;2023-05-07T06:46:21;13.40;;;12.80;;
7583;SDS011;3833;41.764;26.204;2023-05-07T06:48:48;13.37;;;12.67;;
7583;SDS011;3833;41.764;26.204;2023-05-07T06:51:17;5.90;;;5.47;;
7583;SDS011;3833;41.764;26.204;2023-05-07T06:53:43;5.83;;;3.30;;
7583;SDS011;3833;41.764;26.204;2023-05-07T06:56:10;5.80;;;3.47;;
7583;SDS011;3833;41.764;26.204;2023-05-07T06:58:37;5.33;;;4.13;;
7583;SDS011;3833;41.764;26.204;2023-05-07T07:01:04;3.80;;;2.77;;
7583;SDS011;3833;41.764;26.204;2023-05-07T07:03:31;5.83;;;3.70;;
7583;SDS011;3833;41.764;26.204;2023-05-07T07:05:58;4.13;;;2.93;;
7583;SDS011;3833;41.764;26.204;2023-05-07T07:08:28;3.53;;;3.17;;
7583;SDS011;3833;41.764;26.204;2023-05-07T07:10:55;3.10;;;2.80;;
7583;SDS011;3833;41.764;26.204;2023-05-07T07:13:22;3.30;;;3.00;;
7583;SDS011;3833;41.764;26.204;2023-05-07T07:15:49;9.57;;;8.87;;
7583;SDS011;3833;41.764;26.204;2023-05-07T07:18:17;14.83;;;14.03;;
7583;SDS011;3833;41.764;26.204;2023-05-07T07:20:44;8.33;;;7.83;;
7583;SDS011;3833;41.764;26.204;2023-05-07T07:23:11;8.60;;;8.00;;
7583;SDS011;3833;41.764;26.204;2023-05-07T07:25:40;8.93;;;8.03;;
7583;SDS011;3833;41.764;26.204;2023-05-07T07:28:09;4.43;;;3.60;;
7583;SDS011;3833;41.764;26.204;2023-05-07T07:30:37;3.73;;;3.40;;
7583;SDS011;3833;41.764;26.204;2023-05-07T07:33:04;3.77;;;3.47;;
7583;SDS011;3833;41.764;26.204;2023-05-07T07:35:31;3.67;;;3.33;;
7583;SDS011;3833;41.764;26.204;2023-05-07T07:37:58;3.47;;;3.17;;
7583;SDS011;3833;41.764;26.204;2023-05-07T07:40:25;3.80;;;3.50;;
7583;SDS011;3833;41.764;26.204;2023-05-07T07:42:54;6.20;;;3.33;;
7583;SDS011;3833;41.764;26.204;2023-05-07T07:45:21;3.60;;;3.30;;
7583;SDS011;3833;41.764;26.204;2023-05-07T07:47:48;4.27;;;3.27;;
7583;SDS011;3833;41.764;26.204;2023-05-07T07:50:15;4.07;;;3.70;;
7583;SDS011;3833;41.764;26.204;2023-05-07T07:52:42;4.77;;;3.80;;
7583;SDS011;3833;41.764;26.204;2023-05-07T07:55:09;15.87;;;15.17;;
7583;SDS011;3833;41.764;26.204;2023-05-07T07:57:37;17.23;;;16.37;;
7583;SDS011;3833;41.764;26.204;2023-05-07T08:00:06;15.67;;;14.90;;
7583;SDS011;3833;41.764;26.204;2023-05-07T08:02:35;17.40;;;16.50;;
7583;SDS011;3833;41.764;26.204;2023-05-07T08:05:02;4.40;;;2.40;;
7583;SDS011;3833;41.764;26.204;2023-05-07T08:07:29;3.47;;;2.40;;
7583;SDS011;3833;41.764;26.204;2023-05-07T08:09:57;5.00;;;2.40;;
7583;SDS011;3833;41.764;26.204;2023-05-07T08:12:24;2.73;;;2.53;;
7583;SDS011;3833;41.764;26.204;2023-05-07T08:14:52;3.17;;;2.40;;
7583;SDS011;3833;41.764;26.204;2023-05-07T08:17:20;4.00;;;3.47;;
7583;SDS011;3833;41.764;26.204;2023-05-07T08:19:48;2.73;;;2.20;;
7583;SDS011;3833;41.764;26.204;2023-05-07T08:22:16;4.10;;;2.87;;
7583;SDS011;3833;41.764;26.204;2023-05-07T08:24:43;4.40;;;2.60;;
7583;SDS011;3833;41.764;26.204;2023-05-07T08:27:11;3.53;;;2.73;;
7583;SDS011;3833;41.764;26.204;2023-05-07T08:29:38;4.27;;;2.33;;
7583;SDS011;3833;41.764;26.204;2023-05-07T08:32:05;5.70;;;3.10;;
7583;SDS011;3833;41.764;26.204;2023-05-07T08:34:33;4.50;;;2.50;;
7583;SDS011;3833;41.764;26.204;2023-05-07T08:37:00;15.60;;;14.90;;
7583;SDS011;3833;41.764;26.204;2023-05-07T08:39:27;15.90;;;15.10;;
7583;SDS011;3833;41.764;26.204;2023-05-07T08:41:55;15.30;;;14.70;;
7583;SDS011;3833;41.764;26.204;2023-05-07T08:44:23;15.23;;;14.50;;
7583;SDS011;3833;41.764;26.204;2023-05-07T08:46:54;4.33;;;2.30;;
7583;SDS011;3833;41.764;26.204;2023-05-07T08:49:22;3.03;;;2.30;;
7583;SDS011;3833;41.764;26.204;2023-05-07T08:51:51;3.60;;;2.63;;
7583;SDS011;3833;41.764;26.204;2023-05-07T08:54:18;2.70;;;2.50;;
7583;SDS011;3833;41.764;26.204;2023-05-07T08:56:47;4.57;;;2.73;;
7583;SDS011;3833;41.764;26.204;2023-05-07T08:59:14;2.83;;;2.30;;
7583;SDS011;3833;41.764;26.204;2023-05-07T09:01:41;2.50;;;2.30;;
7583;SDS011;3833;41.764;26.204;2023-05-07T09:04:08;4.50;;;2.90;;
7583;SDS011;3833;41.764;26.204;2023-05-07T09:06:35;4.70;;;3.33;;
7583;SDS011;3833;41.764;26.204;2023-05-07T09:09:04;12.00;;;11.50;;
7583;SDS011;3833;41.764;26.204;2023-05-07T09:11:31;15.13;;;14.43;;
7583;SDS011;3833;41.764;26.204;2023-05-07T09:13:58;12.90;;;12.30;;
7583;SDS011;3833;41.764;26.204;2023-05-07T09:16:26;7.23;;;6.83;;
7583;SDS011;3833;41.764;26.204;2023-05-07T09:18:57;4.10;;;2.50;;
7583;SDS011;3833;41.764;26.204;2023-05-07T09:21:25;2.23;;;2.03;;
7583;SDS011;3833;41.764;26.204;2023-05-07T09:23:53;4.17;;;2.80;;
7583;SDS011;3833;41.764;26.204;2023-05-07T09:26:23;2.10;;;2.00;;
7583;SDS011;3833;41.764;26.204;2023-05-07T09:28:51;4.20;;;2.50;;
7583;SDS011;3833;41.764;26.204;2023-05-07T09:31:18;2.90;;;2.43;;
7583;SDS011;3833;41.764;26.204;2023-05-07T09:33:48;4.90;;;2.77;;
7583;SDS011;3833;41.764;26.204;2023-05-07T09:36:15;4.80;;;2.60;;
7583;SDS011;3833;41.764;26.204;2023-05-07T09:38:42;2.63;;;2.43;;
7583;SDS011;3833;41.764;26.204;2023-05-07T09:41:09;5.23;;;2.53;;
7583;SDS011;3833;41.764;26.204;2023-05-07T09:43:39;3.50;;;3.20;;
7583;SDS011;3833;41.764;26.204;2023-05-07T09:46:07;2.53;;;2.27;;
7583;SDS011;3833;41.764;26.204;2023-05-07T09:48:37;2.80;;;2.60;;
7583;SDS011;3833;41.764;26.204;2023-05-07T09:51:08;2.50;;;2.30;;
7583;SDS011;3833;41.764;26.204;2023-05-07T09:53:38;4.37;;;2.63;;
7583;SDS011;3833;41.764;26.204;2023-05-07T09:56:11;6.23;;;2.77;;
7583;SDS011;3833;41.764;26.204;2023-05-07T09:58:41;4.07;;;2.70;;
7583;SDS011;3833;41.764;26.204;2023-05-07T10:01:11;2.83;;;2.43;;
7583;SDS011;3833;41.764;26.204;2023-05-07T10:03:39;3.47;;;2.63;;
7583;SDS011;3833;41.764;26.204;2023-05-07T10:06:08;3.87;;;2.40;;
7583;SDS011;3833;41.764;26.204;2023-05-07T10:08:35;3.60;;;2.70;;
7583;SDS011;3833;41.764;26.204;2023-05-07T10:11:02;3.20;;;2.43;;
7583;SDS011;3833;41.764;26.204;2023-05-07T10:13:32;2.80;;;2.60;;
7583;SDS011;3833;41.764;26.204;2023-05-07T10:16:02;2.67;;;2.13;;
7583;SDS011;3833;41.764;26.204;2023-05-07T10:18:30;3.00;;;2.30;;
7583;SDS011;3833;41.764;26.204;2023-05-07T10:21:00;4.07;;;2.50;;
7583;SDS011;3833;41.764;26.204;2023-05-07T10:23:31;3.67;;;2.53;;
7583;SDS011;3833;41.764;26.204;2023-05-07T10:26:03;2.83;;;2.00;;
7583;SDS011;3833;41.764;26.204;2023-05-07T10:28:31;2.73;;;2.20;;
7583;SDS011;3833;41.764;26.204;2023-05-07T10:31:04;3.13;;;2.80;;
7583;SDS011;3833;41.764;26.204;2023-05-07T10:33:38;2.80;;;2.23;;
7583;SDS011;3833;41.764;26.204;2023-05-07T10:36:06;3.10;;;2.40;;
7583;SDS011;3833;41.764;26.204;2023-05-07T10:38:33;3.07;;;2.13;;
7583;SDS011;3833;41.764;26.204;2023-05-07T10:41:00;2.73;;;2.17;;
7583;SDS011;3833;41.764;26.204;2023-05-07T10:43:38;2.07;;;1.97;;
7583;SDS011;3833;41.764;26.204;2023-05-07T10:46:11;3.60;;;2.40;;
7583;SDS011;3833;41.764;26.204;2023-05-07T10:51:36;2.07;;;1.97;;
7583;SDS011;3833;41.764;26.204;2023-05-07T10:54:22;3.63;;;2.30;;
7583;SDS011;3833;41.764;26.204;2023-05-07T10:56:50;3.37;;;2.10;;
7583;SDS011;3833;41.764;26.204;2023-05-07T10:59:35;8.27;;;7.43;;
7583;SDS011;3833;41.764;26.204;2023-05-07T11:02:12;3.63;;;3.20;;
7583;SDS011;3833;41.764;26.204;2023-05-07T11:04:40;4.90;;;4.60;;
7583;SDS011;3833;41.764;26.204;2023-05-07T11:10:01;2.77;;;2.00;;
7583;SDS011;3833;41.764;26.204;2023-05-07T11:12:49;3.17;;;2.23;;
7583;SDS011;3833;41.764;26.204;2023-05-07T11:15:41;3.53;;;2.23;;
7583;SDS011;3833;41.764;26.204;2023-05-07T11:18:11;2.30;;;2.10;;
7583;SDS011;3833;41.764;26.204;2023-05-07T11:20:55;3.03;;;2.10;;
7583;SDS011;3833;41.764;26.204;2023-05-07T11:26:25;2.43;;;2.23;;
7583;SDS011;3833;41.764;26.204;2023-05-07T11:28:52;2.40;;;2.20;;
7583;SDS011;3833;41.764;26.204;2023-05-07T11:31:23;3.33;;;2.27;;
7583;SDS011;3833;41.764;26.204;2023-05-07T11:33:54;4.90;;;2.50;;
7583;SDS011;3833;41.764;26.204;2023-05-07T11:36:22;3.00;;;2.20;;
7583;SDS011;3833;41.764;26.204;2023-05-07T11:38:52;3.07;;;2.37;;
7583;SDS011;3833;41.764;26.204;2023-05-07T11:41:19;2.40;;;2.20;;
7583;SDS011;3833;41.764;26.204;2023-05-07T11:43:53;4.83;;;2.13;;
7583;SDS011;3833;41.764;26.204;2023-05-07T11:46:21;4.60;;;2.10;;
7583;SDS011;3833;41.764;26.204;2023-05-07T11:48:48;2.60;;;2.40;;
7583;SDS011;3833;41.764;26.204;2023-05-07T11:51:19;3.83;;;2.00;;
7583;SDS011;3833;41.764;26.204;2023-05-07T11:53:47;3.50;;;1.90;;
7583;SDS011;3833;41.764;26.204;2023-05-07T11:56:15;10.23;;;4.67;;
7583;SDS011;3833;41.764;26.204;2023-05-07T11:58:43;2.60;;;1.97;;
7583;SDS011;3833;41.764;26.204;2023-05-07T12:01:11;4.30;;;2.27;;
7583;SDS011;3833;41.764;26.204;2023-05-07T12:03:39;2.47;;;2.20;;
7583;SDS011;3833;41.764;26.204;2023-05-07T12:06:09;3.87;;;2.20;;
7583;SDS011;3833;41.764;26.204;2023-05-07T12:08:38;2.67;;;2.00;;
7583;SDS011;3833;41.764;26.204;2023-05-07T12:11:09;10.83;;;5.77;;
7583;SDS011;3833;41.764;26.204;2023-05-07T12:13:39;4.20;;;2.03;;
7583;SDS011;3833;41.764;26.204;2023-05-07T12:16:07;2.83;;;2.30;;
7583;SDS011;3833;41.764;26.204;2023-05-07T12:18:35;6.13;;;2.30;;
7583;SDS011;3833;41.764;26.204;2023-05-07T12:21:02;3.03;;;2.27;;
7583;SDS011;3833;41.764;26.204;2023-05-07T12:23:31;3.17;;;2.00;;
7583;SDS011;3833;41.764;26.204;2023-05-07T12:26:00;3.63;;;2.43;;
7583;SDS011;3833;41.764;26.204;2023-05-07T12:28:27;2.53;;;2.33;;
7583;SDS011;3833;41.764;26.204;2023-05-07T12:30:54;3.40;;;2.20;;
7583;SDS011;3833;41.764;26.204;2023-05-07T12:33:23;2.63;;;2.30;;
7583;SDS011;3833;41.764;26.204;2023-05-07T12:35:52;4.23;;;2.20;;
7583;SDS011;3833;41.764;26.204;2023-05-07T12:38:23;5.60;;;2.30;;
7583;SDS011;3833;41.764;26.204;2023-05-07T12:40:50;3.90;;;2.20;;
7583;SDS011;3833;41.764;26.204;2023-05-07T12:43:24;4.33;;;2.37;;
7583;SDS011;3833;41.764;26.204;2023-05-07T12:45:52;2.93;;;2.33;;
7583;SDS011;3833;41.764;26.204;2023-05-07T12:48:21;4.63;;;2.30;;
7583;SDS011;3833;41.764;26.204;2023-05-07T12:50:49;3.20;;;2.30;;
7583;SDS011;3833;41.764;26.204;2023-05-07T12:53:16;3.00;;;2.20;;
7583;SDS011;3833;41.764;26.204;2023-05-07T12:55:46;3.87;;;2.13;;
7583;SDS011;3833;41.764;26.204;2023-05-07T12:58:15;3.03;;;2.20;;
7583;SDS011;3833;41.764;26.204;2023-05-07T13:00:44;2.33;;;2.13;;
7583;SDS011;3833;41.764;26.204;2023-05-07T13:03:11;2.27;;;2.07;;
7583;SDS011;3833;41.764;26.204;2023-05-07T13:05:39;3.47;;;2.10;;
7583;SDS011;3833;41.764;26.204;2023-05-07T13:08:06;3.23;;;2.13;;
7583;SDS011;3833;41.764;26.204;2023-05-07T13:10:34;2.60;;;2.13;;
7583;SDS011;3833;41.764;26.204;2023-05-07T13:13:01;4.70;;;2.60;;
7583;SDS011;3833;41.764;26.204;2023-05-07T13:15:29;2.10;;;1.90;;
7583;SDS011;3833;41.764;26.204;2023-05-07T13:17:58;2.83;;;2.10;;
7583;SDS011;3833;41.764;26.204;2023-05-07T13:20:25;4.07;;;2.20;;
7583;SDS011;3833;41.764;26.204;2023-05-07T13:22:52;7.90;;;2.30;;
7583;SDS011;3833;41.764;26.204;2023-05-07T13:25:19;4.60;;;2.43;;
7583;SDS011;3833;41.764;26.204;2023-05-07T13:27:46;5.07;;;2.50;;
7583;SDS011;3833;41.764;26.204;2023-05-07T13:30:13;3.90;;;2.27;;
7583;SDS011;3833;41.764;26.204;2023-05-07T13:32:40;4.07;;;2.67;;
7583;SDS011;3833;41.764;26.204;2023-05-07T13:35:08;2.77;;;2.47;;
7583;SDS011;3833;41.764;26.204;2023-05-07T13:37:35;3.67;;;2.47;;
7583;SDS011;3833;41.764;26.204;2023-05-07T13:40:03;2.70;;;2.50;;
7583;SDS011;3833;41.764;26.204;2023-05-07T13:42:31;4.03;;;2.50;;
7583;SDS011;3833;41.764;26.204;2023-05-07T13:44:59;5.10;;;2.63;;
7583;SDS011;3833;41.764;26.204;2023-05-07T13:47:28;2.30;;;2.10;;
7583;SDS011;3833;41.764;26.204;2023-05-07T13:49:55;3.03;;;2.07;;
7583;SDS011;3833;41.764;26.204;2023-05-07T13:52:23;3.50;;;2.83;;
7583;SDS011;3833;41.764;26.204;2023-05-07T13:54:51;3.87;;;1.90;;
7583;SDS011;3833;41.764;26.204;2023-05-07T13:57:18;3.37;;;2.03;;
7583;SDS011;3833;41.764;26.204;2023-05-07T13:59:45;2.67;;;2.47;;
7583;SDS011;3833;41.764;26.204;2023-05-07T14:02:12;8.23;;;2.60;;
7583;SDS011;3833;41.764;26.204;2023-05-07T14:04:39;4.20;;;2.30;;
7583;SDS011;3833;41.764;26.204;2023-05-07T14:07:06;2.83;;;2.17;;
7583;SDS011;3833;41.764;26.204;2023-05-07T14:09:34;3.57;;;2.80;;
7583;SDS011;3833;41.764;26.204;2023-05-07T14:12:01;3.50;;;2.20;;
7583;SDS011;3833;41.764;26.204;2023-05-07T14:14:28;2.40;;;2.20;;
7583;SDS011;3833;41.764;26.204;2023-05-07T14:16:55;2.77;;;2.30;;
7583;SDS011;3833;41.764;26.204;2023-05-07T14:19:22;5.10;;;2.07;;
7583;SDS011;3833;41.764;26.204;2023-05-07T14:21:49;3.67;;;2.20;;
7583;SDS011;3833;41.764;26.204;2023-05-07T14:24:15;3.93;;;2.30;;
7583;SDS011;3833;41.764;26.204;2023-05-07T14:26:44;9.33;;;3.00;;
7583;SDS011;3833;41.764;26.204;2023-05-07T14:29:11;5.07;;;2.43;;
7583;SDS011;3833;41.764;26.204;2023-05-07T14:31:40;6.10;;;2.27;;
7583;SDS011;3833;41.764;26.204;2023-05-07T14:34:07;2.77;;;2.00;;
7583;SDS011;3833;41.764;26.204;2023-05-07T14:36:34;2.67;;;2.10;;
7583;SDS011;3833;41.764;26.204;2023-05-07T14:39:03;3.23;;;1.90;;
7583;SDS011;3833;41.764;26.204;2023-05-07T14:41:30;3.63;;;2.00;;
7583;SDS011;3833;41.764;26.204;2023-05-07T14:43:59;3.37;;;2.63;;
7583;SDS011;3833;41.764;26.204;2023-05-07T14:46:29;2.57;;;2.30;;
7583;SDS011;3833;41.764;26.204;2023-05-07T14:48:56;2.50;;;2.00;;
7583;SDS011;3833;41.764;26.204;2023-05-07T14:51:23;2.80;;;2.43;;
7583;SDS011;3833;41.764;26.204;2023-05-07T14:53:51;5.13;;;2.60;;
7583;SDS011;3833;41.764;26.204;2023-05-07T14:56:18;3.23;;;2.40;;
7583;SDS011;3833;41.764;26.204;2023-05-07T14:58:46;2.50;;;2.20;;
7583;SDS011;3833;41.764;26.204;2023-05-07T15:01:14;2.50;;;2.30;;
7583;SDS011;3833;41.764;26.204;2023-05-07T15:03:42;3.10;;;2.10;;
7583;SDS011;3833;41.764;26.204;2023-05-07T15:06:09;2.00;;;1.90;;
7583;SDS011;3833;41.764;26.204;2023-05-07T15:08:36;2.80;;;1.90;;
7583;SDS011;3833;41.764;26.204;2023-05-07T15:11:02;2.33;;;2.13;;
7583;SDS011;3833;41.764;26.204;2023-05-07T15:13:29;2.60;;;2.20;;